Time;durP1;ratioP1;P1;durP2;ratioP2;P2;SDS_P1;SDS_P2;PMS_P1;PMS_P2;Temp;Humidity;BMP_temperature;BMP_pressure;BME280_temperature;BME280_humidity;BME280_pressure;Samples;Min_cycle;Max_cycle;Signal;HPM_P1;HPM_P2
2023/10/28 08:25:58;;;;;;;0.40;0.30;;;13.00;99.90;;;;;;4954085;23;20308;-70
2023/10/28 08:28:26;;;;;;;1.03;0.33;;;13.00;99.90;;;;;;4938608;29;20536;-70
2023/10/28 08:30:54;;;;;;;1.70;0.30;;;13.00;99.90;;;;;;4938827;29;20685;-68
2023/10/28 08:33:21;;;;;;;3.03;0.47;;;13.10;99.90;;;;;;4939002;29;20331;-68
2023/10/28 08:35:48;;;;;;;3.20;1.13;;;13.00;99.90;;;;;;4936116;29;20213;-69
2023/10/28 08:38:16;;;;;;;1.67;0.40;;;13.10;99.90;;;;;;4935333;29;20201;-69
2023/10/28 08:40:46;;;;;;;2.33;0.50;;;13.10;99.90;;;;;;4937516;29;20209;-69
2023/10/28 08:43:15;;;;;;;0.53;0.23;;;13.20;99.90;;;;;;4930927;29;20229;-68
2023/10/28 08:45:44;;;;;;;0.67;0.40;;;13.30;99.90;;;;;;4938042;29;20212;-68
2023/10/28 08:48:14;;;;;;;1.90;0.50;;;13.20;99.90;;;;;;4938348;29;20310;-68
2023/10/28 08:50:43;;;;;;;2.77;0.47;;;13.30;99.90;;;;;;4938335;29;20213;-71
2023/10/28 08:53:12;;;;;;;2.70;0.53;;;13.20;99.90;;;;;;4919183;29;20260;-70
2023/10/28 08:55:39;;;;;;;3.13;0.60;;;13.10;99.90;;;;;;4932885;29;20232;-70
2023/10/28 08:58:07;;;;;;;1.03;0.30;;;13.10;99.90;;;;;;4927159;29;20225;-68
2023/10/28 09:00:36;;;;;;;3.17;0.70;;;13.30;99.90;;;;;;4918193;29;20217;-69
2023/10/28 09:03:04;;;;;;;2.90;0.77;;;13.20;99.90;;;;;;4935918;29;20236;-69
2023/10/28 09:05:31;;;;;;;3.67;0.57;;;13.30;99.90;;;;;;4936065;29;20204;-70
2023/10/28 09:07:58;;;;;;;2.17;0.47;;;13.40;99.90;;;;;;4928439;29;20211;-69
2023/10/28 09:10:25;;;;;;;3.37;0.60;;;13.60;99.90;;;;;;4936767;29;20212;-70
2023/10/28 09:12:52;;;;;;;4.53;0.73;;;13.60;99.90;;;;;;4920125;29;20320;-67
2023/10/28 09:15:20;;;;;;;2.40;0.50;;;13.60;99.90;;;;;;4917856;29;20225;-67
2023/10/28 09:17:48;;;;;;;2.73;0.63;;;13.80;99.90;;;;;;4933905;29;20204;-71
2023/10/28 09:20:16;;;;;;;2.43;0.43;;;13.90;99.90;;;;;;4927155;29;20221;-76
2023/10/28 09:22:44;;;;;;;1.50;0.40;;;14.00;99.90;;;;;;4931886;29;20229;-69
2023/10/28 09:25:14;;;;;;;2.37;0.53;;;14.10;99.90;;;;;;4936255;29;20679;-70
2023/10/28 09:27:41;;;;;;;2.13;0.50;;;14.10;99.90;;;;;;4935502;29;20296;-70
2023/10/28 09:30:10;;;;;;;5.50;0.63;;;14.10;99.90;;;;;;4935512;29;20307;-68
2023/10/28 09:32:38;;;;;;;5.93;0.70;;;14.00;99.90;;;;;;4929327;29;20253;-69
2023/10/28 09:35:07;;;;;;;3.57;0.70;;;14.00;99.90;;;;;;4935599;29;20213;-69
2023/10/28 09:37:35;;;;;;;3.93;0.83;;;14.10;99.90;;;;;;4923956;29;20549;-71
2023/10/28 09:40:04;;;;;;;4.30;0.70;;;14.10;99.90;;;;;;4932387;29;20243;-70
2023/10/28 09:42:32;;;;;;;4.17;0.90;;;14.20;99.90;;;;;;4932119;29;20235;-69
2023/10/28 09:44:59;;;;;;;4.20;1.13;;;14.20;99.90;;;;;;4935515;29;20212;-70
2023/10/28 09:47:31;;;;;;;6.13;0.87;;;14.10;99.90;;;;;;4929839;29;20208;-72
2023/10/28 09:50:04;;;;;;;5.40;0.80;;;14.10;99.90;;;;;;4934906;29;20739;-76
2023/10/28 09:52:36;;;;;;;1.57;0.60;;;14.10;99.90;;;;;;4930767;29;20705;-81
2023/10/28 09:55:06;;;;;;;3.97;0.57;;;14.10;99.90;;;;;;4935148;29;20228;-85
2023/10/28 09:57:34;;;;;;;4.20;1.03;;;14.00;99.90;;;;;;4923658;29;20210;-73
2023/10/28 10:00:09;;;;;;;3.83;0.80;;;14.10;99.90;;;;;;4921525;29;20251;-79
2023/10/28 10:02:48;;;;;;;2.77;0.43;;;14.20;99.90;;;;;;4934716;29;20728;-78
2023/10/28 10:05:18;;;;;;;2.00;0.50;;;14.30;99.90;;;;;;4934759;29;20236;-77
2023/10/28 10:07:46;;;;;;;3.20;0.80;;;14.40;99.90;;;;;;4935290;29;20213;-77
2023/10/28 10:10:16;;;;;;;7.60;0.87;;;14.50;99.90;;;;;;4934138;29;20289;-81
2023/10/28 10:12:43;;;;;;;3.73;0.67;;;14.70;99.90;;;;;;4922887;29;20229;-77
2023/10/28 10:15:14;;;;;;;3.37;0.97;;;14.80;99.90;;;;;;4916380;29;20327;-82
2023/10/28 10:17:54;;;;;;;5.17;0.50;;;14.40;99.90;;;;;;4931896;29;20213;-77
2023/10/28 10:20:26;;;;;;;4.73;0.50;;;14.30;99.90;;;;;;4934767;29;20232;-77
2023/10/28 10:23:01;;;;;;;4.57;0.70;;;14.30;99.90;;;;;;4923511;29;20228;-78
2023/10/28 10:25:32;;;;;;;6.57;1.20;;;14.50;99.90;;;;;;4921050;29;20204;-77
2023/10/28 10:28:11;;;;;;;3.70;0.77;;;14.60;99.90;;;;;;4934019;29;20220;-76
2023/10/28 10:30:38;;;;;;;4.00;0.73;;;14.70;99.90;;;;;;4933768;29;20280;-75
2023/10/28 10:33:05;;;;;;;2.40;0.77;;;14.70;99.90;;;;;;4931754;29;20292;-79
2023/10/28 10:35:33;;;;;;;4.73;0.80;;;14.50;99.90;;;;;;4934494;29;20236;-74
2023/10/28 10:38:08;;;;;;;2.60;0.50;;;14.30;99.90;;;;;;4930541;29;20660;-76
2023/10/28 10:40:48;;;;;;;2.10;0.53;;;14.30;99.90;;;;;;4934853;29;20283;-75
2023/10/28 10:43:20;;;;;;;4.30;0.73;;;14.20;99.90;;;;;;4930601;29;20597;-79
2023/10/28 10:45:47;;;;;;;6.53;0.70;;;14.20;99.90;;;;;;4934094;29;20212;-78
2023/10/28 10:48:15;;;;;;;3.27;0.70;;;14.30;99.90;;;;;;4932468;29;20208;-77
2023/10/28 10:50:41;;;;;;;4.47;0.87;;;14.40;99.90;;;;;;4934490;29;20296;-79
2023/10/28 10:53:11;;;;;;;6.60;1.03;;;14.40;99.90;;;;;;4931886;29;20287;-77
2023/10/28 10:55:40;;;;;;;3.63;0.90;;;14.50;99.90;;;;;;4933736;29;20708;-79
2023/10/28 10:58:08;;;;;;;2.63;0.70;;;14.60;99.90;;;;;;4932565;29;20204;-80
2023/10/28 11:00:35;;;;;;;5.17;1.23;;;14.60;99.90;;;;;;4934781;29;20209;-80
2023/10/28 11:03:03;;;;;;;7.70;0.80;;;14.60;99.90;;;;;;4931452;29;20303;-82
2023/10/28 11:05:31;;;;;;;4.10;0.67;;;14.70;99.90;;;;;;4935037;29;20209;-79
2023/10/28 11:07:58;;;;;;;4.63;0.60;;;14.60;99.90;;;;;;4934549;29;20723;-80
2023/10/28 11:10:27;;;;;;;2.57;0.80;;;14.70;99.90;;;;;;4933919;29;20219;-78
2023/10/28 11:12:54;;;;;;;3.63;0.60;;;14.80;99.90;;;;;;4934548;29;20267;-81
2023/10/28 11:15:22;;;;;;;2.77;0.57;;;14.90;99.90;;;;;;4934627;29;20715;-83
2023/10/28 11:17:50;;;;;;;2.93;0.60;;;15.10;99.90;;;;;;4933642;29;20239;-81
2023/10/28 11:20:20;;;;;;;2.77;0.60;;;15.20;99.90;;;;;;4934345;29;20315;-82
2023/10/28 11:22:47;;;;;;;2.10;0.60;;;15.40;99.90;;;;;;4933483;29;20231;-80
2023/10/28 11:25:14;;;;;;;3.33;0.70;;;15.50;99.90;;;;;;4933935;29;20221;-82
2023/10/28 11:27:42;;;;;;;6.13;0.67;;;15.60;99.90;;;;;;4933967;29;20312;-81
2023/10/28 11:30:11;;;;;;;1.87;0.60;;;15.60;99.90;;;;;;4933776;29;20667;-78
2023/10/28 11:32:40;;;;;;;3.30;1.10;;;15.70;99.90;;;;;;4924691;29;20243;-79
2023/10/28 11:35:09;;;;;;;2.27;0.70;;;15.50;99.90;;;;;;4916121;29;20237;-82
2023/10/28 11:37:36;;;;;;;2.60;0.70;;;15.50;99.90;;;;;;4932221;29;20284;-82
2023/10/28 11:40:04;;;;;;;2.90;0.77;;;15.60;99.90;;;;;;4934839;29;20207;-83
2023/10/28 11:42:34;;;;;;;5.03;1.00;;;15.60;99.90;;;;;;4932308;29;20249;-83
2023/10/28 11:45:04;;;;;;;5.23;0.90;;;15.70;99.90;;;;;;4935434;29;20237;-83
2023/10/28 11:47:32;;;;;;;3.57;0.77;;;16.00;99.90;;;;;;4935134;29;20205;-83
2023/10/28 11:49:58;;;;;;;2.80;0.90;;;16.20;99.90;;;;;;4935020;29;20567;-82
2023/10/28 11:52:26;;;;;;;5.17;1.07;;;16.10;99.90;;;;;;4935264;29;20315;-82
2023/10/28 11:54:53;;;;;;;4.10;0.70;;;16.00;99.90;;;;;;4935256;29;20272;-81
2023/10/28 11:57:20;;;;;;;2.93;0.63;;;16.10;99.90;;;;;;4935660;29;20213;-82
2023/10/28 11:59:47;;;;;;;3.27;0.60;;;16.10;99.90;;;;;;4935648;29;20207;-85
2023/10/28 12:02:15;;;;;;;5.47;0.60;;;16.00;99.90;;;;;;4935320;29;20224;-85
2023/10/28 12:04:42;;;;;;;2.57;0.70;;;16.00;99.90;;;;;;4935176;29;20299;-82
2023/10/28 12:07:09;;;;;;;2.33;0.70;;;16.10;99.90;;;;;;4935924;29;20319;-84
2023/10/28 12:09:37;;;;;;;5.13;0.80;;;16.10;99.90;;;;;;4935053;29;20608;-81
2023/10/28 12:12:04;;;;;;;1.57;0.43;;;15.90;99.90;;;;;;4934975;29;20231;-84
2023/10/28 12:14:31;;;;;;;2.17;0.53;;;15.70;99.90;;;;;;4931755;29;20317;-85
2023/10/28 12:16:58;;;;;;;3.10;0.60;;;15.50;99.90;;;;;;4934165;29;20201;-82
2023/10/28 12:19:27;;;;;;;2.30;0.70;;;15.30;99.90;;;;;;4934193;29;20288;-81
2023/10/28 12:21:54;;;;;;;5.50;0.80;;;15.40;99.90;;;;;;4932610;29;20264;-83
2023/10/28 12:24:20;;;;;;;3.03;0.40;;;15.60;99.90;;;;;;4934985;29;20791;-83
2023/10/28 12:26:47;;;;;;;4.93;0.70;;;15.80;99.90;;;;;;4934330;29;20571;-81
2023/10/28 12:29:15;;;;;;;3.73;0.67;;;15.80;99.90;;;;;;4934575;29;20315;-80
2023/10/28 12:31:41;;;;;;;3.10;0.70;;;15.70;99.90;;;;;;4934542;29;20340;-81
2023/10/28 12:34:08;;;;;;;4.13;0.70;;;15.60;99.90;;;;;;4925895;29;20241;-80
